Dades meteomassalio
Diari Summary for Setembre 16, 2017 Units:  Metric    English   Both
« Previous Day
Next Day »
Diari Semanal Mensual Anual Personalitzat
  Maxima: Minima: Mijana:
Temperatura: -17.8 °C -15 °C -10.7 °C
Rosada: -17.8 °C -16.8 °C -14.8 °C
Humitat: Humidity % 40 % 62 %
Velocitat del vent: 0 km/h 0 km/h 23.5 km/h
Racha vent: 0 km/h - -
Vent:- - SSW
Pressio: 0 hPa 34418.7 hPa -
Pluja: 0 mm    
Historical Graphs
 
 
Tabular Data for Setembre 16, 2017
Time Temperature Dew Point Pressure Wind Wind Speed Wind Gust Humidity Rainfall Rate (Hourly) solar Conditions
-17.8 °C -17.8 °C 0 hPa Calm     Humidity % 0 mm SolarRadiationWatts/m^2 W/m2 Conditions
00:04 -12.2 °C -14.5 °C 34486.4 hPa South 17.9 km/h 17.9 km/h 76 % 0 mm 0.0 W/m2 RA
00:09 -12.2 °C -14.6 °C 34486.4 hPa SSW 29.8 km/h 29.8 km/h 75 % 0 mm 0.0 W/m2 CLR
00:14 -12.2 °C -14.6 °C 34486.4 hPa South 23.8 km/h 23.8 km/h 75 % 0 mm 0.0 W/m2 CLR
00:19 -12.2 °C -14.7 °C 34486.4 hPa SSW 29.8 km/h 29.8 km/h 74 % 0 mm 0.0 W/m2 CLR
00:24 -12.2 °C -14.7 °C 34486.4 hPa SW 26.9 km/h 26.9 km/h 74 % 0 mm 0.0 W/m2 CLR
00:29 -12.2 °C -14.8 °C 34486.4 hPa SSW 23.8 km/h 23.8 km/h 73 % 0 mm 0.0 W/m2 CLR
00:34 -12.2 °C -14.8 °C 34486.4 hPa SSW 23.8 km/h 23.8 km/h 73 % 0 mm 0.0 W/m2 CLR
00:39 -12.2 °C -14.9 °C 34486.4 hPa SW 28.5 km/h 28.5 km/h 72 % 0 mm 0.0 W/m2 CLR
00:41 -12.2 °C -14.9 °C 34486.4 hPa SW 29.8 km/h 29.8 km/h 72 % 0 mm 0.0 W/m2 CLR
00:46 -11.9 °C -14.6 °C 34486.4 hPa SSW 23.8 km/h 23.8 km/h 72 % 0 mm 0.0 W/m2 CLR
00:51 -11.9 °C -14.6 °C 34486.4 hPa SSW 26.9 km/h 26.9 km/h 72 % 0 mm 0.0 W/m2 CLR
00:56 -11.9 °C -14.6 °C 34486.4 hPa SSW 29.8 km/h 29.8 km/h 72 % 0 mm 0.0 W/m2 CLR
01:01 -12.2 °C -14.9 °C 34486.4 hPa South 9 km/h 9 km/h 72 % 0 mm 0.0 W/m2 CLR
01:06 -12.2 °C -14.8 °C 34486.4 hPa South 6 km/h   73 % 0 mm 0.0 W/m2 CLR
01:11 -12.2 °C -14.7 °C 34486.4 hPa SE 9 km/h 9 km/h 74 % 0 mm 0.0 W/m2 CLR
01:16 -12.6 °C -14.9 °C 34486.4 hPa Calm     75 % 0 mm 0.0 W/m2 CLR
01:21 -12.6 °C -14.8 °C 34486.4 hPa SSE 3.1 km/h   76 % 0 mm 0.0 W/m2 CLR
01:26 -12.6 °C -14.7 °C 34476.3 hPa Calm     77 % 0 mm 0.0 W/m2 CLR
01:31 -12.6 °C -14.6 °C 34476.3 hPa Calm     78 % 0 mm 0.0 W/m2 CLR
01:36 -12.6 °C -14.6 °C 34476.3 hPa Calm     78 % 0 mm 0.0 W/m2 CLR
01:41 -12.8 °C -14.8 °C 34476.3 hPa SSE 6 km/h 6 km/h 78 % 0 mm 0.0 W/m2 CLR
01:46 -13.2 °C -15.2 °C 34476.3 hPa SSE 9 km/h 9 km/h 78 % 0 mm 0.0 W/m2 CLR
01:51 -13.2 °C -15.2 °C 34476.3 hPa SSW 10.3 km/h 10.3 km/h 77 % 0 mm 0.0 W/m2 CLR
01:56 -13.2 °C -15.4 °C 34476.3 hPa SSW 20.8 km/h 20.8 km/h 76 % 0 mm 0.0 W/m2 CLR
02:01 -13.2 °C -15.4 °C 34476.3 hPa South 26.9 km/h 26.9 km/h 75 % 0 mm 0.0 W/m2 CLR
02:02 -13.2 °C -15.4 °C 34476.3 hPa SSW 26.9 km/h 26.9 km/h 75 % 0 mm 0.0 W/m2 CLR
02:07 -13.2 °C -15.4 °C 34476.3 hPa SSW 20.9 km/h 20.9 km/h 75 % 0 mm 0.0 W/m2 CLR
02:12 -13.2 °C -15.4 °C 34476.3 hPa SSW 26.9 km/h 26.9 km/h 75 % 0 mm 0.0 W/m2 CLR
02:17 -13.2 °C -15.6 °C 34476.3 hPa SSW 20.9 km/h 20.9 km/h 74 % 0 mm 0.0 W/m2 CLR
02:22 -12.8 °C -15.3 °C 34476.3 hPa SSW 23.8 km/h 23.8 km/h 74 % 0 mm 0.0 W/m2 CLR
02:23 -12.8 °C -15.3 °C 34476.3 hPa SSW 23.8 km/h 23.8 km/h 74 % 0 mm 0.0 W/m2 CLR
02:28 -12.6 °C -14.9 °C 34476.3 hPa SSW 23.8 km/h 23.8 km/h 74 % 0 mm 0.0 W/m2 CLR
02:33 -12.6 °C -14.9 °C 34476.3 hPa SSW 26.9 km/h 26.9 km/h 74 % 0 mm 0.0 W/m2 CLR
02:38 -12.6 °C -14.9 °C 34476.3 hPa SSW 23.3 km/h 23.3 km/h 75 % 0 mm 0.0 W/m2 CLR
02:43 -12.6 °C -14.9 °C 34476.3 hPa SW 29.8 km/h 29.8 km/h 74 % 0 mm 0.0 W/m2 CLR
02:48 -12.6 °C -14.9 °C 34476.3 hPa South 23.3 km/h 23.3 km/h 74 % 0 mm 0.0 W/m2 CLR
02:53 -12.6 °C -14.9 °C 34476.3 hPa SSW 29.8 km/h 29.8 km/h 75 % 0 mm 0.0 W/m2 CLR
02:58 -12.6 °C -14.9 °C 34476.3 hPa South 26.9 km/h 26.9 km/h 74 % 0 mm 0.0 W/m2 CLR
03:03 -12.6 °C -14.9 °C 34476.3 hPa SSW 26.9 km/h 26.9 km/h 74 % 0 mm 0.0 W/m2 CLR
03:08 -12.6 °C -14.9 °C 34476.3 hPa SSW 35.7 km/h 35.7 km/h 74 % 0 mm 0.0 W/m2 CLR
03:13 -12.6 °C -14.9 °C 34476.3 hPa SSW 26.9 km/h 26.9 km/h 74 % 0 mm 0.0 W/m2 CLR
03:18 -12.6 °C -14.9 °C 34476.3 hPa SSW 12.9 km/h 12.9 km/h 74 % 0 mm 0.0 W/m2 CLR
03:23 -12.8 °C -15.2 °C 34476.3 hPa SSW 23.8 km/h 23.8 km/h 75 % 0 mm 0.0 W/m2 CLR
03:28 -12.8 °C -15.2 °C 34476.3 hPa South 15 km/h 15 km/h 75 % 0 mm 0.0 W/m2 CLR
03:33 -12.8 °C -15.2 °C 34462.7 hPa SSW 15 km/h 15 km/h 75 % 0 mm 0.0 W/m2 CLR
03:38 -12.8 °C -15.1 °C 34462.7 hPa SSE 17.9 km/h 17.9 km/h 76 % 0 mm 0.0 W/m2 CLR
03:43 -12.8 °C -15.1 °C 34462.7 hPa SSW 11.9 km/h 11.9 km/h 76 % 0 mm 0.0 W/m2 CLR
03:48 -12.8 °C -15.1 °C 34462.7 hPa South 15.6 km/h 15.6 km/h 76 % 0 mm 0.0 W/m2 CLR
03:58 -13.2 °C -15.4 °C 34462.7 hPa South 15 km/h 15 km/h 76 % 0 mm 0.0 W/m2 CLR
04:03 -12.8 °C -15.1 °C 34462.7 hPa South 29.8 km/h 29.8 km/h 76 % 0 mm 0.0 W/m2 CLR
04:08 -12.8 °C -15.1 °C 34462.7 hPa SSE 17.9 km/h 17.9 km/h 76 % 0 mm 0.0 W/m2 CLR
04:13 -12.8 °C -15.1 °C 34462.7 hPa SW 26.9 km/h 26.9 km/h 76 % 0 mm 0.0 W/m2 CLR
04:18 -13.2 °C -15.4 °C 34462.7 hPa South 29.8 km/h 29.8 km/h 76 % 0 mm 0.0 W/m2 CLR
04:23 -13.2 °C -15.4 °C 34452.6 hPa South 23.8 km/h 23.8 km/h 76 % 0 mm 0.0 W/m2 CLR
04:28 -12.8 °C -15.2 °C 34452.6 hPa South 26.9 km/h 26.9 km/h 75 % 0 mm 0.0 W/m2 CLR
04:33 -12.8 °C -15.2 °C 34452.6 hPa South 26.9 km/h 26.9 km/h 75 % 0 mm 0.0 W/m2 CLR
04:38 -12.8 °C -15.1 °C 34452.6 hPa SSW 29.8 km/h 29.8 km/h 76 % 0 mm 0.0 W/m2 CLR
04:43 -13.2 °C -15.4 °C 34452.6 hPa SSE 26.9 km/h 26.9 km/h 76 % 0 mm 0.0 W/m2 CLR
04:48 -13.2 °C -15.4 °C 34452.6 hPa South 20.9 km/h 20.9 km/h 76 % 0 mm 0.0 W/m2 CLR
04:53 -13.2 °C -15.4 °C 34452.6 hPa South 26.9 km/h 26.9 km/h 76 % 0 mm 0.0 W/m2 CLR
04:58 -13.2 °C -15.4 °C 34452.6 hPa SSW 26.9 km/h 26.9 km/h 76 % 0 mm 0.0 W/m2 CLR
05:03 -12.8 °C -14.9 °C 34452.6 hPa SSE 26.9 km/h 26.9 km/h 77 % 0 mm 0.0 W/m2 CLR
05:08 -12.8 °C -14.8 °C 34462.7 hPa SSE 17.9 km/h 17.9 km/h 78 % 0 mm 0.0 W/m2 CLR
05:13 -12.8 °C -14.8 °C 34462.7 hPa SE 15 km/h 15 km/h 79 % 0 mm 0.0 W/m2 CLR
05:18 -12.8 °C -14.7 °C 34462.7 hPa SSE 26.9 km/h 26.9 km/h 80 % 0 mm 0.0 W/m2 CLR
05:21 -12.8 °C -14.7 °C 34462.7 hPa SSE 29.8 km/h 29.8 km/h 80 % 0 mm 0.0 W/m2 CLR
05:26 -13.2 °C -14.9 °C 34462.7 hPa SSE 11.9 km/h 11.9 km/h 80 % 0 mm 0.0 W/m2 CLR
05:31 -13.2 °C -14.9 °C 34462.7 hPa SSE 11.9 km/h 11.9 km/h 80 % 0 mm 0.0 W/m2 CLR
05:36 -13.4 °C -15.2 °C 34462.7 hPa South 15 km/h 15 km/h 80 % 0 mm 0.0 W/m2 CLR
05:41 -13.8 °C -15.6 °C 34462.7 hPa SSE 17.9 km/h 17.9 km/h 80 % 0 mm 0.0 W/m2 CLR
05:46 -13.8 °C -15.6 °C 34462.7 hPa SSE 9 km/h 9 km/h 80 % 0 mm 0.0 W/m2 CLR
05:51 -14.1 °C -15.9 °C 34462.7 hPa SSE 9 km/h 9 km/h 80 % 0 mm 0.0 W/m2 CLR
05:56 -14.1 °C -15.8 °C 34462.7 hPa SSE 9 km/h 9 km/h 81 % 0 mm 0.0 W/m2 CLR
06:01 -14.1 °C -15.8 °C 34462.7 hPa SE 5.1 km/h 5.1 km/h 81 % 0 mm 0.0 W/m2 CLR
06:06 -14.1 °C -15.8 °C 34462.7 hPa SE 18.2 km/h 18.2 km/h 81 % 0 mm 0.0 W/m2 CLR
06:11 -14.1 °C -15.8 °C 34462.7 hPa SE 10.3 km/h 10.3 km/h 81 % 0 mm 0.0 W/m2 CLR
06:16 -14.1 °C -15.8 °C 34462.7 hPa SE 9 km/h 9 km/h 81 % 0 mm 0.0 W/m2 CLR
06:21 -14.1 °C -15.8 °C 34462.7 hPa SSE 11.9 km/h 11.9 km/h 81 % 0 mm 0.0 W/m2 CLR
06:26 -14.4 °C -15.9 °C 34462.7 hPa South 15 km/h 15 km/h 82 % 0 mm 0.0 W/m2 CLR
06:31 -14.4 °C -16.1 °C 34462.7 hPa South 17.9 km/h 17.9 km/h 81 % 0 mm 0.0 W/m2 CLR
06:36 -14.4 °C -16.1 °C 34462.7 hPa South 18.2 km/h 18.2 km/h 81 % 0 mm 0.0 W/m2 CLR
06:41 -14.7 °C -16.4 °C 34462.7 hPa South 20.9 km/h 20.9 km/h 80 % 0 mm 0.0 W/m2 CLR
06:46 -14.7 °C -16.4 °C 34462.7 hPa South 20.8 km/h 20.8 km/h 80 % 0 mm 0.0 W/m2 CLR
06:51 -14.7 °C -16.4 °C 34462.7 hPa South 15 km/h 15 km/h 80 % 0 mm 0.0 W/m2 CLR
06:56 -14.7 °C -16.4 °C 34476.3 hPa SSE 15 km/h 15 km/h 80 % 0 mm 0.0 W/m2 CLR
07:01 -14.7 °C -16.4 °C 34476.3 hPa SSE 11.9 km/h 11.9 km/h 80 % 0 mm 0.0 W/m2 CLR
07:06 -14.7 °C -16.3 °C 34462.7 hPa SSE 15.6 km/h 15.6 km/h 81 % 0 mm 0.0 W/m2 CLR
07:11 -15 °C -16.6 °C 34476.3 hPa SSE 15 km/h 15 km/h 82 % 0 mm 0.0 W/m2 CLR
07:16 -15 °C -16.5 °C 34462.7 hPa South 10.3 km/h 10.3 km/h 83 % 0 mm 0.0 W/m2 CLR
07:26 -15 °C -16.7 °C 34476.3 hPa SSE 23.8 km/h 23.8 km/h 81 % 0 mm 0.0 W/m2 CLR
07:31 -15 °C -16.7 °C 34476.3 hPa SSE 9 km/h 9 km/h 81 % 0 mm 0.0 W/m2 OVC
07:36 -15 °C -16.7 °C 34476.3 hPa SE 9 km/h 9 km/h 81 % 0 mm 0.0 W/m2 OVC
07:41 -15 °C -16.6 °C 34476.3 hPa SE 9 km/h 9 km/h 82 % 0 mm 0.0 W/m2 OVC
07:46 -15 °C -16.6 °C 34476.3 hPa SE 11.9 km/h 11.9 km/h 82 % 0 mm 7.0 W/m2 BKN
07:51 -15 °C -16.5 °C 34476.3 hPa SSE 17.9 km/h 17.9 km/h 83 % 0 mm 12.0 W/m2 BKN
07:56 -15 °C -16.5 °C 34476.3 hPa SSE 15 km/h 15 km/h 83 % 0 mm 16.0 W/m2 BKN
08:06 -15 °C -16.5 °C 34476.3 hPa SE 15.6 km/h 15.6 km/h 83 % 0 mm 21.0 W/m2 BKN
08:11 -15 °C -16.5 °C 34486.4 hPa SSE 15.6 km/h 15.6 km/h 83 % 0 mm 28.0 W/m2 BKN
08:16 -15 °C -16.6 °C 34486.4 hPa SSE 15 km/h 15 km/h 82 % 0 mm 47.0 W/m2 BKN
08:21 -14.7 °C -16.3 °C 34486.4 hPa South 15 km/h 15 km/h 81 % 0 mm 51.0 W/m2 SCT
08:26 -14.7 °C -16.3 °C 34486.4 hPa SSE 17.9 km/h 17.9 km/h 81 % 0 mm 42.0 W/m2 BKN
08:31 -14.7 °C -16.4 °C 34486.4 hPa South 15.6 km/h 15.6 km/h 80 % 0 mm 40.0 W/m2 BKN
08:36 -14.4 °C -16.3 °C 34486.4 hPa SSE 15.6 km/h 15.6 km/h 79 % 0 mm 47.0 W/m2 BKN
08:41 -14.1 °C -15.9 °C 34486.4 hPa SSE 11.9 km/h 11.9 km/h 79 % 0 mm 121.0 W/m2 CLR
08:46 -13.8 °C -15.7 °C 34486.4 hPa SSE 17.9 km/h 17.9 km/h 78 % 0 mm 120.0 W/m2 FEW
08:51 -13.4 °C -15.4 °C 34486.4 hPa SSE 17.9 km/h 17.9 km/h 78 % 0 mm 163.0 W/m2 CLR
08:56 -13.2 °C -15.2 °C 34486.4 hPa South 11.9 km/h 11.9 km/h 77 % 0 mm 165.0 W/m2 CLR
09:01 -12.8 °C -14.9 °C 34486.4 hPa SSE 9 km/h 9 km/h 77 % 0 mm 183.0 W/m2 CLR
09:06 -12.6 °C -14.8 °C 34486.4 hPa SSE 9 km/h 9 km/h 76 % 0 mm 229.0 W/m2 CLR
09:11 -12.2 °C -14.6 °C 34496.6 hPa Calm     75 % 0 mm 167.0 W/m2 CLR
09:16 -11.9 °C -14.4 °C 34496.6 hPa Calm     74 % 0 mm 155.0 W/m2 CLR
09:21 -11.9 °C -14.7 °C 34496.6 hPa SSW 23.8 km/h 23.8 km/h 71 % 0 mm 195.0 W/m2 CLR
09:26 -11.9 °C -14.6 °C 34496.6 hPa SSW 26.9 km/h 26.9 km/h 72 % 0 mm 67.0 W/m2 CLR
09:32 -11.9 °C -14.6 °C 34496.6 hPa South 20.9 km/h 20.9 km/h 72 % 0 mm 84.0 W/m2 FEW
09:37 -11.9 °C -14.7 °C 34496.6 hPa SSW 20.8 km/h 20.8 km/h 71 % 0 mm 121.0 W/m2 FEW
09:42 -11.6 °C -14.4 °C 34496.6 hPa SSE 23.8 km/h 23.8 km/h 71 % 0 mm 294.0 W/m2 CLR
09:47 -11.6 °C -14.4 °C 34496.6 hPa SSW 20.9 km/h 20.9 km/h 71 % 0 mm 248.0 W/m2 CLR
09:52 -11.3 °C -14.1 °C 34510.1 hPa South 12.9 km/h 12.9 km/h 71 % 0 mm 352.0 W/m2 CLR
09:57 -11.3 °C -14.1 °C 34510.1 hPa SSW 20.9 km/h 20.9 km/h 71 % 0 mm 367.0 W/m2 CLR
10:02 -11.3 °C -14.2 °C 34510.1 hPa South 28.5 km/h 28.5 km/h 70 % 0 mm 385.0 W/m2 CLR
10:07 -11 °C -14.1 °C 34510.1 hPa South 20.9 km/h 20.9 km/h 69 % 0 mm 399.0 W/m2 CLR
10:12 -11 °C -13.9 °C 34510.1 hPa SSW 32.8 km/h 32.8 km/h 70 % 0 mm 413.0 W/m2 CLR
10:17 -10.7 °C -13.7 °C 34510.1 hPa SW 29.8 km/h 29.8 km/h 70 % 0 mm 425.0 W/m2 CLR
10:22 -10.7 °C -13.7 °C 34520.3 hPa SSW 26.9 km/h 26.9 km/h 70 % 0 mm 443.0 W/m2 CLR
10:27 -10.7 °C -13.9 °C 34520.3 hPa WSW 31.1 km/h 31.1 km/h 68 % 0 mm 459.0 W/m2 CLR
10:32 -10.4 °C -13.6 °C 34520.3 hPa SW 38.8 km/h 38.8 km/h 68 % 0 mm 473.0 W/m2 CLR
10:37 -10.4 °C -13.4 °C 34520.3 hPa SW 29.8 km/h 29.8 km/h 69 % 0 mm 487.0 W/m2 CLR
10:42 -10.4 °C -13.6 °C 34520.3 hPa SW 29.8 km/h 29.8 km/h 68 % 0 mm 508.0 W/m2 CLR
10:47 -10.4 °C -13.6 °C 34520.3 hPa SW 29.8 km/h 29.8 km/h 68 % 0 mm 527.0 W/m2 CLR
10:57 -10.1 °C -13.2 °C 34520.3 hPa SW 32.8 km/h 32.8 km/h 69 % 0 mm 550.0 W/m2 CLR
11:02 -10.1 °C -13.4 °C 34520.3 hPa WSW 29.8 km/h 29.8 km/h 67 % 0 mm 557.0 W/m2 CLR
11:07 -10.1 °C -13.4 °C 34510.1 hPa WSW 29.8 km/h 29.8 km/h 67 % 0 mm 573.0 W/m2 CLR
11:12 -9.8 °C -13.2 °C 34510.1 hPa SW 38.8 km/h 38.8 km/h 66 % 0 mm 585.0 W/m2 CLR
11:17 -9.8 °C -13.1 °C 34510.1 hPa SSW 35.7 km/h 35.7 km/h 67 % 0 mm 594.0 W/m2 CLR
11:22 -9.8 °C -13.1 °C 34510.1 hPa SW 32.8 km/h 32.8 km/h 67 % 0 mm 605.0 W/m2 CLR
11:27 -9.8 °C -13.4 °C 34510.1 hPa SSW 29.8 km/h 29.8 km/h 65 % 0 mm 619.0 W/m2 CLR
11:32 -9.4 °C -13.1 °C 34510.1 hPa WSW 20.9 km/h 20.9 km/h 65 % 0 mm 628.0 W/m2 CLR
11:37 -9.4 °C -13.3 °C 34510.1 hPa SSW 6 km/h 6 km/h 63 % 0 mm 640.0 W/m2 CLR
11:42 -9.1 °C -12.8 °C 34510.1 hPa SW 29.8 km/h 29.8 km/h 65 % 0 mm 650.0 W/m2 CLR
11:47 -9.4 °C -13.1 °C 34510.1 hPa SSW 41.7 km/h 41.7 km/h 65 % 0 mm 657.0 W/m2 CLR
11:52 -9.4 °C -13.3 °C 34496.6 hPa SSW 35.7 km/h 35.7 km/h 63 % 0 mm 668.0 W/m2 CLR
11:57 -9.1 °C -13 °C 34496.6 hPa SSW 36.2 km/h 36.2 km/h 63 % 0 mm 677.0 W/m2 CLR
12:02 -9.1 °C -13.2 °C 34496.6 hPa South 32.8 km/h 32.8 km/h 62 % 0 mm 689.0 W/m2 CLR
12:07 -8.8 °C -12.3 °C 34496.6 hPa SSW 32.8 km/h 32.8 km/h 66 % 0 mm 703.0 W/m2 CLR
12:12 -8.8 °C -12.5 °C 34496.6 hPa SW 20.9 km/h 20.9 km/h 65 % 0 mm 708.0 W/m2 CLR
12:17 -8.5 °C -12.6 °C 34496.6 hPa WSW 26.9 km/h 26.9 km/h 62 % 0 mm 714.0 W/m2 CLR
12:22 -8.8 °C -12.9 °C 34486.4 hPa Calm     62 % 0 mm 759.0 W/m2 CLR
12:27 -8.5 °C -12.8 °C 34486.4 hPa SW 29.8 km/h 29.8 km/h 60 % 0 mm 738.0 W/m2 CLR
12:32 -8.2 °C -12.6 °C 34486.4 hPa SW 38.8 km/h 38.8 km/h 60 % 0 mm 738.0 W/m2 CLR
12:37 -8.2 °C -12.3 °C 34486.4 hPa SW 29.8 km/h 29.8 km/h 62 % 0 mm 731.0 W/m2 CLR
12:42 -8.2 °C -12.6 °C 34486.4 hPa SSW 53.6 km/h 53.6 km/h 60 % 0 mm 788.0 W/m2 CLR
12:47 -8.2 °C -12.8 °C 34486.4 hPa SSW 29.8 km/h 29.8 km/h 58 % 0 mm 786.0 W/m2 CLR
12:52 -8.2 °C -12.6 °C 34486.4 hPa WSW 29.8 km/h 29.8 km/h 60 % 0 mm 779.0 W/m2 CLR
12:57 -7.9 °C -12.4 °C 34486.4 hPa SSW 38.8 km/h 38.8 km/h 59 % 0 mm 821.0 W/m2 CLR
13:02 -7.9 °C -12.6 °C 34486.4 hPa SW 44.7 km/h 44.7 km/h 58 % 0 mm 821.0 W/m2 CLR
13:07 -8.2 °C -12.7 °C 34476.3 hPa SW 26.9 km/h 26.9 km/h 59 % 0 mm 283.0 W/m2 CLR
13:12 -8.2 °C -13 °C 34476.3 hPa WSW 29.8 km/h 29.8 km/h 57 % 0 mm 179.0 W/m2 CLR
13:17 -8.2 °C -13.1 °C 34486.4 hPa WSW 29.8 km/h 29.8 km/h 56 % 0 mm 802.0 W/m2 CLR
13:22 -8.2 °C -12.8 °C 34476.3 hPa West 29.8 km/h 29.8 km/h 58 % 0 mm 803.0 W/m2 CLR
13:27 -7.9 °C -13.2 °C 34476.3 hPa SSW 23.8 km/h 23.8 km/h 54 % 0 mm 789.0 W/m2 CLR
13:32 -7.9 °C -13.3 °C 34476.3 hPa SW 50.7 km/h 50.7 km/h 53 % 0 mm 793.0 W/m2 CLR
13:37 -7.6 °C -13 °C 34476.3 hPa South 32.8 km/h 32.8 km/h 53 % 0 mm 791.0 W/m2 CLR
13:42 -7.6 °C -13 °C 34476.3 hPa West 32.8 km/h 32.8 km/h 53 % 0 mm 791.0 W/m2 CLR
13:47 -7.6 °C -13.2 °C 34462.7 hPa SSW 29.8 km/h 29.8 km/h 52 % 0 mm 793.0 W/m2 CLR
13:52 -7.9 °C -13.4 °C 34462.7 hPa SW 38.8 km/h 38.8 km/h 52 % 0 mm 796.0 W/m2 CLR
13:57 -7.6 °C -13.5 °C 34462.7 hPa West 38.8 km/h 38.8 km/h 50 % 0 mm 800.0 W/m2 CLR
14:02 -7.3 °C -13.2 °C 34462.7 hPa South 32.8 km/h 32.8 km/h 50 % 0 mm 800.0 W/m2 CLR
14:07 -7.6 °C -13.7 °C 34452.6 hPa WSW 29.8 km/h 29.8 km/h 49 % 0 mm 800.0 W/m2 CLR
14:12 -7.3 °C -13.6 °C 34452.6 hPa SW 29.8 km/h 29.8 km/h 48 % 0 mm 800.0 W/m2 CLR
14:17 -7.3 °C -13.7 °C 34452.6 hPa SW 29.8 km/h 29.8 km/h 47 % 0 mm 777.0 W/m2 CLR
14:18 -7.3 °C -13.7 °C 34452.6 hPa WSW 29.8 km/h 29.8 km/h 47 % 0 mm 777.0 W/m2 CLR
14:23 -7.3 °C -13.2 °C 34452.6 hPa WSW 29.8 km/h 29.8 km/h 50 % 0 mm 791.0 W/m2 CLR
14:28 -7.3 °C -13.6 °C 34452.6 hPa SSW 38.8 km/h 38.8 km/h 48 % 0 mm 793.0 W/m2 CLR
14:33 -7 °C -13.8 °C 34452.6 hPa South 32.8 km/h 32.8 km/h 45 % 0 mm 803.0 W/m2 CLR
14:38 -7.3 °C -13.7 °C 34452.6 hPa SW 32.8 km/h 32.8 km/h 47 % 0 mm 687.0 W/m2 CLR
14:43 -7.3 °C -13.9 °C 34452.6 hPa West 38.8 km/h 38.8 km/h 46 % 0 mm 786.0 W/m2 CLR
14:48 -7 °C -13.6 °C 34452.6 hPa WNW 32.8 km/h 32.8 km/h 46 % 0 mm 793.0 W/m2 CLR
14:53 -7.3 °C -14.2 °C 34442.4 hPa West 35.7 km/h 35.7 km/h 44 % 0 mm 770.0 W/m2 CLR
14:58 -7.3 °C -13.7 °C 34452.6 hPa WSW 44.7 km/h 44.7 km/h 47 % 0 mm 763.0 W/m2 CLR
15:03 -7 °C -13.8 °C 34442.4 hPa WSW 35.7 km/h 35.7 km/h 45 % 0 mm 758.0 W/m2 CLR
15:08 -7.3 °C -14.1 °C 34442.4 hPa SW 35.7 km/h 35.7 km/h 45 % 0 mm 752.0 W/m2 CLR
15:13 -7.3 °C -13.9 °C 34442.4 hPa SW 44.7 km/h 44.7 km/h 46 % 0 mm 747.0 W/m2 CLR
15:18 -7 °C -13.8 °C 34442.4 hPa WSW 38.8 km/h 38.8 km/h 45 % 0 mm 737.0 W/m2 CLR
15:23 -7 °C -13.9 °C 34442.4 hPa WSW 29.8 km/h 29.8 km/h 44 % 0 mm 731.0 W/m2 CLR
15:28 -6.7 °C -13.8 °C 34442.4 hPa SW 38.8 km/h 38.8 km/h 43 % 0 mm 724.0 W/m2 CLR
15:33 -7 °C -13.9 °C 34442.4 hPa SW 36.2 km/h 36.2 km/h 44 % 0 mm 719.0 W/m2 CLR
15:38 -7 °C -13.9 °C 34428.8 hPa WSW 33.6 km/h 33.6 km/h 44 % 0 mm 712.0 W/m2 CLR
15:43 -6.7 °C -13.8 °C 34428.8 hPa WSW 44.7 km/h 44.7 km/h 43 % 0 mm 705.0 W/m2 CLR
15:48 -6.7 °C -13.3 °C 34428.8 hPa West 35.7 km/h 35.7 km/h 46 % 0 mm 673.0 W/m2 CLR
15:53 -7 °C -13.8 °C 34428.8 hPa SW 29.8 km/h 29.8 km/h 45 % 0 mm 661.0 W/m2 CLR
15:58 -7 °C -13.8 °C 34428.8 hPa SW 41.7 km/h 41.7 km/h 45 % 0 mm 679.0 W/m2 CLR
16:03 -6.7 °C -13.7 °C 34428.8 hPa SW 33.6 km/h 33.6 km/h 44 % 0 mm 670.0 W/m2 CLR
16:08 -6.7 °C -13.7 °C 34428.8 hPa WSW 29.8 km/h 29.8 km/h 44 % 0 mm 666.0 W/m2 CLR
16:13 -7.3 °C -14.2 °C 34428.8 hPa WSW 32.8 km/h 32.8 km/h 44 % 0 mm 666.0 W/m2 CLR
16:18 -7 °C -14.6 °C 34428.8 hPa West 38.8 km/h 38.8 km/h 41 % 0 mm 606.0 W/m2 CLR
16:23 -7 °C -14.1 °C 34428.8 hPa WSW 33.6 km/h 33.6 km/h 43 % 0 mm 643.0 W/m2 CLR
16:28 -7 °C -13.9 °C 34418.7 hPa WSW 38.8 km/h 38.8 km/h 44 % 0 mm 541.0 W/m2 CLR
16:33 -7 °C -13.8 °C 34418.7 hPa WSW 35.7 km/h 35.7 km/h 45 % 0 mm 638.0 W/m2 CLR
16:38 -7 °C -14.3 °C 34418.7 hPa WSW 38.8 km/h 38.8 km/h 42 % 0 mm 613.0 W/m2 CLR
16:43 -6.7 °C -13.8 °C 34418.7 hPa SW 29.8 km/h 29.8 km/h 43 % 0 mm 519.0 W/m2 CLR
16:48 -6.7 °C -14.3 °C 34418.7 hPa WSW 35.7 km/h 35.7 km/h 41 % 0 mm 541.0 W/m2 CLR
16:53 -7 °C -14.1 °C 34418.7 hPa WSW 38.8 km/h 38.8 km/h 43 % 0 mm 462.0 W/m2 CLR
16:58 -7 °C -14.3 °C 34418.7 hPa West 32.8 km/h 32.8 km/h 42 % 0 mm 279.0 W/m2 CLR
17:03 -7.6 °C -14.9 °C 34418.7 hPa WNW 44.7 km/h 44.7 km/h 42 % 0 mm 373.0 W/m2 CLR
17:08 -7.6 °C -14.6 °C 34418.7 hPa WSW 26.9 km/h 26.9 km/h 44 % 0 mm 336.0 W/m2 CLR
17:13 -7.3 °C -14.4 °C 34418.7 hPa WSW 38.8 km/h 38.8 km/h 43 % 0 mm 566.0 W/m2 CLR
17:18 -7.6 °C -14.6 °C 34418.7 hPa WSW 41.4 km/h 41.4 km/h 44 % 0 mm 301.0 W/m2 CLR
17:23 -7.6 °C -14.3 °C 34418.7 hPa WNW 29.8 km/h 29.8 km/h 45 % 0 mm 432.0 W/m2 CLR
17:28 -7.3 °C -14.2 °C 34418.7 hPa SW 23.8 km/h 23.8 km/h 44 % 0 mm 396.0 W/m2 CLR
17:33 -7.3 °C -14.2 °C 34418.7 hPa West 31.1 km/h 31.1 km/h 44 % 0 mm 311.0 W/m2 CLR
17:38 -7.3 °C -14.4 °C 34418.7 hPa WSW 29.8 km/h 29.8 km/h 43 % 0 mm 434.0 W/m2 CLR
17:43 -7.3 °C -14.4 °C 34418.7 hPa West 25.9 km/h 25.9 km/h 43 % 0 mm 253.0 W/m2 CLR
17:48 -7.3 °C -14.4 °C 34418.7 hPa West 38.8 km/h 38.8 km/h 43 % 0 mm 422.0 W/m2 CLR
17:53 -7.3 °C -14.4 °C 34418.7 hPa West 32.8 km/h 32.8 km/h 43 % 0 mm 390.0 W/m2 CLR
17:58 -7.3 °C -14.4 °C 34418.7 hPa West 28.5 km/h 28.5 km/h 43 % 0 mm 366.0 W/m2 CLR
18:03 -7 °C -14.6 °C 34418.7 hPa West 29.8 km/h 29.8 km/h 41 % 0 mm 343.0 W/m2 CLR
18:08 -7.3 °C -14.8 °C 34418.7 hPa West 41.7 km/h 41.7 km/h 41 % 0 mm 323.0 W/m2 CLR
18:13 -7.3 °C -14.8 °C 34418.7 hPa WSW 35.7 km/h 35.7 km/h 41 % 0 mm 306.0 W/m2 CLR
18:18 -7.3 °C -15 °C 34418.7 hPa WSW 35.7 km/h 35.7 km/h 40 % 0 mm 290.0 W/m2 CLR
18:23 -7.3 °C -15 °C 34418.7 hPa WSW 29.8 km/h 29.8 km/h 40 % 0 mm 274.0 W/m2 CLR
18:28 -7.3 °C -14.8 °C 34418.7 hPa WSW 35.7 km/h 35.7 km/h 41 % 0 mm 255.0 W/m2 CLR
18:34 -7.6 °C -15.3 °C 34418.7 hPa WSW 29.8 km/h 29.8 km/h 40 % 0 mm 236.0 W/m2 CLR
18:39 -7.6 °C -15.1 °C 34418.7 hPa West 26.9 km/h 26.9 km/h 41 % 0 mm 220.0 W/m2 CLR
18:44 -7.6 °C -15.3 °C 34418.7 hPa WSW 35.7 km/h 35.7 km/h 40 % 0 mm 199.0 W/m2 CLR
18:49 -7.6 °C -14.7 °C 34428.8 hPa WSW 28.5 km/h 28.5 km/h 43 % 0 mm 181.0 W/m2 CLR
18:54 -7.6 °C -15.1 °C 34428.8 hPa West 38.8 km/h 38.8 km/h 41 % 0 mm 160.0 W/m2 CLR
19:04 -7.6 °C -15.1 °C 34428.8 hPa West 26.9 km/h 26.9 km/h 41 % 0 mm 125.0 W/m2 CLR
19:09 -7.6 °C -15.1 °C 34428.8 hPa SW 29.8 km/h 29.8 km/h 41 % 0 mm 113.0 W/m2 CLR
19:14 -7.6 °C -15.1 °C 34442.4 hPa WSW 29.8 km/h 29.8 km/h 41 % 0 mm 90.0 W/m2 CLR
19:19 -7.9 °C -15.2 °C 34442.4 hPa WSW 23.8 km/h 23.8 km/h 42 % 0 mm 72.0 W/m2 FEW
19:24 -7.9 °C -15.2 °C 34442.4 hPa WSW 33.6 km/h 33.6 km/h 42 % 0 mm 53.0 W/m2 SCT
19:29 -7.9 °C -15.2 °C 34442.4 hPa SW 29.8 km/h 29.8 km/h 42 % 0 mm 46.0 W/m2 SCT
19:34 -7.9 °C -15.2 °C 34442.4 hPa West 35.7 km/h 35.7 km/h 42 % 0 mm 33.0 W/m2 BKN
19:39 -8.2 °C -15.3 °C 34442.4 hPa WSW 31.1 km/h 31.1 km/h 43 % 0 mm 25.0 W/m2 BKN
19:44 -8.2 °C -15.1 °C 34442.4 hPa WSW 20.9 km/h 20.9 km/h 44 % 0 mm 18.0 W/m2 BKN
19:54 -8.5 °C -15 °C 34442.4 hPa WSW 3.1 km/h   46 % 0 mm 12.0 W/m2 BKN
19:59 -8.5 °C -15 °C 34452.6 hPa WSW 11.9 km/h 11.9 km/h 46 % 0 mm 9.0 W/m2 BKN
20:04 -8.8 °C -15.1 °C 34452.6 hPa SW 3.1 km/h 3.1 km/h 47 % 0 mm 7.0 W/m2 BKN
20:09 -9.4 °C -15.5 °C 34452.6 hPa SW 20.9 km/h 20.9 km/h 48 % 0 mm 0.0 W/m2 OVC
20:14 -9.8 °C -15.8 °C 34452.6 hPa WSW 20.9 km/h 20.9 km/h 48 % 0 mm 0.0 W/m2 OVC
20:19 -10.1 °C -16.1 °C 34452.6 hPa SW 6 km/h 6 km/h 48 % 0 mm 0.0 W/m2 CLR
20:24 -10.4 °C -16.2 °C 34462.7 hPa SW 6 km/h 6 km/h 49 % 0 mm 0.0 W/m2 CLR
20:29 -10.4 °C -16.2 °C 34462.7 hPa Calm     49 % 0 mm 0.0 W/m2 CLR
20:34 -10.7 °C -16.3 °C 34462.7 hPa Calm     50 % 0 mm 0.0 W/m2 CLR
20:39 -10.7 °C -16.5 °C 34462.7 hPa Calm     49 % 0 mm 0.0 W/m2 CLR
20:44 -11 °C -16.8 °C 34462.7 hPa Calm     49 % 0 mm 0.0 W/m2 CLR
20:49 -11 °C -16.4 °C 34476.3 hPa Calm     51 % 0 mm 0.0 W/m2 CLR
20:54 -11.3 °C -16.6 °C 34476.3 hPa SSW 9 km/h 9 km/h 52 % 0 mm 0.0 W/m2 CLR
20:59 -11.3 °C -16.6 °C 34486.4 hPa Calm     52 % 0 mm 0.0 W/m2 CLR
21:04 -11.3 °C -16.6 °C 34486.4 hPa Calm     52 % 0 mm 0.0 W/m2 CLR
21:09 -11.3 °C -16.6 °C 34486.4 hPa Calm     52 % 0 mm 0.0 W/m2 CLR
21:14 -11.3 °C -16.4 °C 34496.6 hPa WSW 15 km/h 15 km/h 53 % 0 mm 0.0 W/m2 CLR
21:19 -11.3 °C -16.3 °C 34496.6 hPa WSW 23.8 km/h 23.8 km/h 54 % 0 mm 0.0 W/m2 CLR
21:24 -11 °C -16.2 °C 34496.6 hPa West 29.8 km/h 29.8 km/h 53 % 0 mm 0.0 W/m2 CLR
21:29 -10.7 °C -15.9 °C 34510.1 hPa SW 20.9 km/h 20.9 km/h 53 % 0 mm 0.0 W/m2 CLR
21:34 -10.7 °C -15.9 °C 34510.1 hPa SW 2.6 km/h 2.6 km/h 53 % 0 mm 0.0 W/m2 CLR
21:39 -11 °C -16 °C 34510.1 hPa SW 20.9 km/h 20.9 km/h 54 % 0 mm 0.0 W/m2 CLR
21:44 -11.3 °C -16.3 °C 34510.1 hPa SW 7.7 km/h 7.7 km/h 54 % 0 mm 0.0 W/m2 CLR
21:49 -11.3 °C -16.2 °C 34520.3 hPa SW 15.6 km/h 15.6 km/h 55 % 0 mm 0.0 W/m2 CLR
21:54 -11.3 °C -16 °C 34520.3 hPa SW 15.6 km/h 15.6 km/h 56 % 0 mm 0.0 W/m2 CLR
21:59 -11.3 °C -16 °C 34520.3 hPa SW 20.9 km/h 20.9 km/h 56 % 0 mm 0.0 W/m2 CLR
22:04 -11.3 °C -16 °C 34533.8 hPa SW 23.8 km/h 23.8 km/h 56 % 0 mm 0.0 W/m2 CLR
22:09 -11 °C -15.7 °C 34533.8 hPa SW 15 km/h 15 km/h 56 % 0 mm 0.0 W/m2 CLR
22:14 -11 °C -15.6 °C 34533.8 hPa SW 17.9 km/h 17.9 km/h 57 % 0 mm 0.0 W/m2 CLR
22:19 -11.3 °C -15.9 °C 34533.8 hPa SW 17.9 km/h 17.9 km/h 57 % 0 mm 0.0 W/m2 CLR
22:24 -11.3 °C -15.7 °C 34533.8 hPa SW 9 km/h 9 km/h 58 % 0 mm 0.0 W/m2 CLR
22:29 -11.3 °C -15.7 °C 34533.8 hPa SW 15.6 km/h 15.6 km/h 58 % 0 mm 0.0 W/m2 CLR
22:34 -11.6 °C -16 °C 34533.8 hPa SSW 26.9 km/h 26.9 km/h 58 % 0 mm 0.0 W/m2 CLR
22:39 -11.6 °C -16.2 °C 34533.8 hPa SSW 26.9 km/h 26.9 km/h 57 % 0 mm 0.0 W/m2 CLR
22:44 -11.6 °C -16.3 °C 34533.8 hPa SSW 23.8 km/h 23.8 km/h 56 % 0 mm 0.0 W/m2 CLR
22:49 -11.6 °C -16.4 °C 34533.8 hPa SSW 23.8 km/h 23.8 km/h 55 % 0 mm 0.0 W/m2 CLR
22:59 -11.6 °C -16.3 °C 34533.8 hPa South 23.8 km/h 23.8 km/h 56 % 0 mm 0.0 W/m2 CLR
23:04 -11.6 °C -16.3 °C 34544 hPa SSW 26.9 km/h 26.9 km/h 56 % 0 mm 0.0 W/m2 CLR
23:09 -11.6 °C -16.2 °C 34544 hPa SSW 23.8 km/h 23.8 km/h 57 % 0 mm 0.0 W/m2 CLR
23:14 -11.6 °C -16.2 °C 34544 hPa SSW 15 km/h 15 km/h 57 % 0 mm 0.0 W/m2 CLR
23:19 -11.9 °C -16.3 °C 34544 hPa South 17.9 km/h 17.9 km/h 58 % 0 mm 0.0 W/m2 CLR
23:25 -11.9 °C -16.3 °C 34544 hPa South 23.8 km/h 23.8 km/h 58 % 0 mm 0.0 W/m2 CLR
23:29 -12.2 °C -16.5 °C 34554.1 hPa South 18.2 km/h 18.2 km/h 59 % 0 mm 0.0 W/m2 CLR
23:35 -12.2 °C -16.5 °C 34554.1 hPa SSW 18.2 km/h 18.2 km/h 59 % 0 mm 0.0 W/m2 CLR
23:40 -12.6 °C -16.6 °C 34554.1 hPa SSW 17.9 km/h 17.9 km/h 60 % 0 mm 0.0 W/m2 CLR
23:45 -12.6 °C -16.6 °C 34554.1 hPa South 15 km/h 15 km/h 60 % 0 mm 0.0 W/m2 CLR
23:50 -12.2 °C -16.2 °C 34554.1 hPa South 26.9 km/h 26.9 km/h 61 % 0 mm 0.0 W/m2 CLR
23:55 -12.2 °C -16.2 °C 34554.1 hPa South 26.9 km/h 26.9 km/h 61 % 0 mm 0.0 W/m2 CLR
Lo Temps de Massalio
Compliments of Weather Underground - 1.25 mb